sensor_id;sensor_type;location;lat;lon;timestamp;pressure;altitude;pressure_sealevel;temperature;humidity
52975;BME280;38839;45.186;5.720;2023-04-08T00:00:04;99307.13;;;7.60;68.01
52975;BME280;38839;45.186;5.720;2023-04-08T00:02:30;99302.78;;;7.57;68.15
52975;BME280;38839;45.186;5.720;2023-04-08T00:04:56;99305.38;;;7.57;67.93
52975;BME280;38839;45.186;5.720;2023-04-08T00:07:21;99311.41;;;7.55;68.81
52975;BME280;38839;45.186;5.720;2023-04-08T00:09:47;99303.53;;;7.50;68.82
52975;BME280;38839;45.186;5.720;2023-04-08T00:12:12;99304.38;;;7.48;69.43
52975;BME280;38839;45.186;5.720;2023-04-08T00:14:37;99305.19;;;7.40;69.54
52975;BME280;38839;45.186;5.720;2023-04-08T00:17:05;99301.66;;;7.37;69.84
52975;BME280;38839;45.186;5.720;2023-04-08T00:19:30;99301.59;;;7.31;70.74
52975;BME280;38839;45.186;5.720;2023-04-08T00:21:55;99301.53;;;7.28;70.42
52975;BME280;38839;45.186;5.720;2023-04-08T00:24:21;99302.44;;;7.28;69.99
52975;BME280;38839;45.186;5.720;2023-04-08T00:26:46;99304.13;;;7.26;70.61
52975;BME280;38839;45.186;5.720;2023-04-08T00:29:12;99306.72;;;7.28;70.05
52975;BME280;38839;45.186;5.720;2023-04-08T00:31:38;99298.94;;;7.28;70.08
52975;BME280;38839;45.186;5.720;2023-04-08T00:34:03;99299.00;;;7.31;69.52
52975;BME280;38839;45.186;5.720;2023-04-08T00:36:28;99304.25;;;7.37;69.31
52975;BME280;38839;45.186;5.720;2023-04-08T00:38:54;99301.63;;;7.34;69.25
52975;BME280;38839;45.186;5.720;2023-04-08T00:41:19;99298.13;;;7.32;69.20
52975;BME280;38839;45.186;5.720;2023-04-08T00:43:45;99303.31;;;7.30;68.69
52975;BME280;38839;45.186;5.720;2023-04-08T00:46:10;99299.84;;;7.30;68.87
52975;BME280;38839;45.186;5.720;2023-04-08T00:48:36;99305.03;;;7.28;68.98
52975;BME280;38839;45.186;5.720;2023-04-08T00:51:02;99302.34;;;7.23;68.65
52975;BME280;38839;45.186;5.720;2023-04-08T00:53:29;99302.31;;;7.19;68.73
52975;BME280;38839;45.186;5.720;2023-04-08T00:55:55;99305.63;;;7.09;68.79
52975;BME280;38839;45.186;5.720;2023-04-08T00:58:20;99295.97;;;6.98;68.91
52975;BME280;38839;45.186;5.720;2023-04-08T01:01:13;99305.50;;;6.98;68.92
52975;BME280;38839;45.186;5.720;2023-04-08T01:04:04;99302.94;;;6.99;69.06
52975;BME280;38839;45.186;5.720;2023-04-08T01:06:39;99307.22;;;6.97;69.14
52975;BME280;38839;45.186;5.720;2023-04-08T01:09:08;99307.22;;;6.97;68.87
52975;BME280;38839;45.186;5.720;2023-04-08T01:11:34;99303.72;;;6.95;69.01
52975;BME280;38839;45.186;5.720;2023-04-08T01:14:04;99302.84;;;6.95;69.14
52975;BME280;38839;45.186;5.720;2023-04-08T01:16:32;99314.91;;;6.93;69.01
52975;BME280;38839;45.186;5.720;2023-04-08T01:18:58;99311.44;;;6.91;69.05
52975;BME280;38839;45.186;5.720;2023-04-08T01:21:25;99314.06;;;6.92;69.26
52975;BME280;38839;45.186;5.720;2023-04-08T01:23:58;99317.50;;;6.93;69.16
52975;BME280;38839;45.186;5.720;2023-04-08T01:26:26;99314.91;;;6.93;69.11
52975;BME280;38839;45.186;5.720;2023-04-08T01:28:55;99321.00;;;6.95;69.16
52975;BME280;38839;45.186;5.720;2023-04-08T01:31:23;99323.69;;;6.99;69.27
52975;BME280;38839;45.186;5.720;2023-04-08T01:33:50;99320.16;;;6.96;69.25
52975;BME280;38839;45.186;5.720;2023-04-08T01:36:16;99324.50;;;6.98;68.88
52975;BME280;38839;45.186;5.720;2023-04-08T01:38:43;99328.84;;;6.98;69.13
52975;BME280;38839;45.186;5.720;2023-04-08T01:41:09;99315.84;;;6.96;69.17
52975;BME280;38839;45.186;5.720;2023-04-08T01:43:35;99320.06;;;6.90;69.37
52975;BME280;38839;45.186;5.720;2023-04-08T01:46:02;99317.41;;;6.87;69.50
52975;BME280;38839;45.186;5.720;2023-04-08T01:48:28;99319.97;;;6.83;69.49
52975;BME280;38839;45.186;5.720;2023-04-08T01:50:55;99319.91;;;6.80;69.68
52975;BME280;38839;45.186;5.720;2023-04-08T01:53:21;99314.66;;;6.74;70.10
52975;BME280;38839;45.186;5.720;2023-04-08T01:55:54;99319.81;;;6.71;70.44
52975;BME280;38839;45.186;5.720;2023-04-08T01:58:20;99316.31;;;6.69;70.58
52975;BME280;38839;45.186;5.720;2023-04-08T02:00:46;99313.66;;;6.64;70.51
52975;BME280;38839;45.186;5.720;2023-04-08T02:03:13;99316.25;;;6.66;70.38
52975;BME280;38839;45.186;5.720;2023-04-08T02:05:41;99316.22;;;6.63;70.33
52975;BME280;38839;45.186;5.720;2023-04-08T02:08:07;99313.56;;;6.60;70.04
52975;BME280;38839;45.186;5.720;2023-04-08T02:10:32;99319.53;;;6.53;70.32
52975;BME280;38839;45.186;5.720;2023-04-08T02:12:57;99317.84;;;6.58;70.33
52975;BME280;38839;45.186;5.720;2023-04-08T02:15:25;99320.44;;;6.58;70.47
52975;BME280;38839;45.186;5.720;2023-04-08T02:17:59;99314.28;;;6.50;71.46
52975;BME280;38839;45.186;5.720;2023-04-08T02:20:37;99320.28;;;6.47;71.68
52975;BME280;38839;45.186;5.720;2023-04-08T02:23:08;99326.13;;;6.35;72.12
52975;BME280;38839;45.186;5.720;2023-04-08T02:25:37;99323.44;;;6.29;72.20
52975;BME280;38839;45.186;5.720;2023-04-08T02:28:06;99315.66;;;6.29;71.95
52975;BME280;38839;45.186;5.720;2023-04-08T02:30:35;99320.84;;;6.29;72.77
52975;BME280;38839;45.186;5.720;2023-04-08T02:33:03;99326.03;;;6.29;72.29
52975;BME280;38839;45.186;5.720;2023-04-08T02:35:30;99313.94;;;6.28;72.79
52975;BME280;38839;45.186;5.720;2023-04-08T02:37:55;99320.75;;;6.23;72.58
52975;BME280;38839;45.186;5.720;2023-04-08T02:40:29;99326.78;;;6.22;72.64
52975;BME280;38839;45.186;5.720;2023-04-08T02:42:55;99328.53;;;6.23;72.51
52975;BME280;38839;45.186;5.720;2023-04-08T02:45:21;99328.53;;;6.23;72.69
52975;BME280;38839;45.186;5.720;2023-04-08T02:47:47;99324.94;;;6.15;73.20
52975;BME280;38839;45.186;5.720;2023-04-08T02:50:12;99332.47;;;6.02;73.41
52975;BME280;38839;45.186;5.720;2023-04-08T02:52:38;99331.44;;;5.94;73.51
52975;BME280;38839;45.186;5.720;2023-04-08T02:55:04;99335.69;;;5.89;73.89
52975;BME280;38839;45.186;5.720;2023-04-08T02:57:35;99330.47;;;5.88;73.71
52975;BME280;38839;45.186;5.720;2023-04-08T03:00:02;99333.03;;;5.88;73.75
52975;BME280;38839;45.186;5.720;2023-04-08T03:02:28;99334.84;;;5.92;74.02
52975;BME280;38839;45.186;5.720;2023-04-08T03:04:53;99329.63;;;5.90;74.00
52975;BME280;38839;45.186;5.720;2023-04-08T03:07:19;99334.03;;;5.94;73.98
52975;BME280;38839;45.186;5.720;2023-04-08T03:09:44;99338.44;;;5.98;73.82
52975;BME280;38839;45.186;5.720;2023-04-08T03:12:10;99340.28;;;6.04;73.91
52975;BME280;38839;45.186;5.720;2023-04-08T03:14:35;99335.06;;;6.01;73.71
52975;BME280;38839;45.186;5.720;2023-04-08T03:17:01;99337.66;;;6.02;73.89
52975;BME280;38839;45.186;5.720;2023-04-08T03:19:26;99338.44;;;5.98;74.03
52975;BME280;38839;45.186;5.720;2023-04-08T03:21:51;99338.44;;;5.98;74.18
52975;BME280;38839;45.186;5.720;2023-04-08T03:24:17;99344.53;;;6.00;73.97
52975;BME280;38839;45.186;5.720;2023-04-08T03:26:42;99346.25;;;6.00;74.75
52975;BME280;38839;45.186;5.720;2023-04-08T03:29:07;99350.53;;;5.98;74.24
52975;BME280;38839;45.186;5.720;2023-04-08T03:31:34;99353.09;;;5.96;74.65
52975;BME280;38839;45.186;5.720;2023-04-08T03:34:00;99343.53;;;5.94;73.87
52975;BME280;38839;45.186;5.720;2023-04-08T03:36:25;99352.91;;;5.87;74.35
52975;BME280;38839;45.186;5.720;2023-04-08T03:38:51;99357.19;;;5.85;73.89
52975;BME280;38839;45.186;5.720;2023-04-08T03:41:16;99354.59;;;5.85;74.22
52975;BME280;38839;45.186;5.720;2023-04-08T03:43:42;99358.81;;;5.81;74.47
52975;BME280;38839;45.186;5.720;2023-04-08T03:46:07;99357.75;;;5.72;74.71
52975;BME280;38839;45.186;5.720;2023-04-08T03:48:32;99359.31;;;5.63;74.79
52975;BME280;38839;45.186;5.720;2023-04-08T03:50:58;99355.84;;;5.61;74.95
52975;BME280;38839;45.186;5.720;2023-04-08T03:53:23;99360.97;;;5.58;74.82
52975;BME280;38839;45.186;5.720;2023-04-08T03:55:49;99357.47;;;5.56;74.95
52975;BME280;38839;45.186;5.720;2023-04-08T03:58:17;99350.63;;;5.58;74.86
52975;BME280;38839;45.186;5.720;2023-04-08T04:00:43;99354.03;;;5.57;74.79
52975;BME280;38839;45.186;5.720;2023-04-08T04:03:08;99354.88;;;5.56;74.94
52975;BME280;38839;45.186;5.720;2023-04-08T04:05:37;99359.16;;;5.54;75.22
52975;BME280;38839;45.186;5.720;2023-04-08T04:08:02;99355.59;;;5.48;75.41
52975;BME280;38839;45.186;5.720;2023-04-08T04:10:28;99364.13;;;5.45;75.55
52975;BME280;38839;45.186;5.720;2023-04-08T04:12:53;99365.56;;;5.31;76.43
52975;BME280;38839;45.186;5.720;2023-04-08T04:15:18;99368.28;;;5.37;76.82
52975;BME280;38839;45.186;5.720;2023-04-08T04:17:46;99373.50;;;5.38;76.63
52975;BME280;38839;45.186;5.720;2023-04-08T04:20:12;99367.50;;;5.41;76.28
52975;BME280;38839;45.186;5.720;2023-04-08T04:22:37;99367.50;;;5.41;76.39
52975;BME280;38839;45.186;5.720;2023-04-08T04:25:03;99373.44;;;5.37;76.45
52975;BME280;38839;45.186;5.720;2023-04-08T04:27:28;99370.81;;;5.34;76.67
52975;BME280;38839;45.186;5.720;2023-04-08T04:29:54;99370.69;;;5.28;76.49
52975;BME280;38839;45.186;5.720;2023-04-08T04:32:19;99375.00;;;5.29;76.54
52975;BME280;38839;45.186;5.720;2023-04-08T04:34:45;99374.09;;;5.27;76.79
52975;BME280;38839;45.186;5.720;2023-04-08T04:37:10;99370.59;;;5.24;76.42
52975;BME280;38839;45.186;5.720;2023-04-08T04:39:36;99379.25;;;5.27;76.15
52975;BME280;38839;45.186;5.720;2023-04-08T04:42:01;99380.88;;;5.21;76.40
52975;BME280;38839;45.186;5.720;2023-04-08T04:44:27;99379.94;;;5.18;76.80
52975;BME280;38839;45.186;5.720;2023-04-08T04:46:52;99378.16;;;5.15;76.69
52975;BME280;38839;45.186;5.720;2023-04-08T04:49:18;99384.16;;;5.13;76.89
52975;BME280;38839;45.186;5.720;2023-04-08T04:51:43;99391.09;;;5.15;76.40
52975;BME280;38839;45.186;5.720;2023-04-08T04:54:09;99391.00;;;5.12;76.76
52975;BME280;38839;45.186;5.720;2023-04-08T04:56:34;99398.44;;;4.97;76.86
52975;BME280;38839;45.186;5.720;2023-04-08T04:58:59;99391.72;;;5.05;76.90
52975;BME280;38839;45.186;5.720;2023-04-08T05:01:25;99387.50;;;5.09;76.65
52975;BME280;38839;45.186;5.720;2023-04-08T05:03:50;99384.13;;;5.11;76.96
52975;BME280;38839;45.186;5.720;2023-04-08T05:06:16;99389.34;;;5.14;76.93
52975;BME280;38839;45.186;5.720;2023-04-08T05:08:41;99388.47;;;5.14;76.89
52975;BME280;38839;45.186;5.720;2023-04-08T05:11:10;99393.81;;;5.21;76.91
52975;BME280;38839;45.186;5.720;2023-04-08T05:13:35;99398.13;;;5.21;76.99
52975;BME280;38839;45.186;5.720;2023-04-08T05:16:00;99398.22;;;5.26;76.53
52975;BME280;38839;45.186;5.720;2023-04-08T05:18:26;99402.53;;;5.27;76.60
52975;BME280;38839;45.186;5.720;2023-04-08T05:20:51;99401.84;;;5.34;76.38
52975;BME280;38839;45.186;5.720;2023-04-08T05:23:17;99408.75;;;5.35;76.58
52975;BME280;38839;45.186;5.720;2023-04-08T05:25:42;99407.03;;;5.34;76.66
52975;BME280;38839;45.186;5.720;2023-04-08T05:28:08;99408.56;;;5.26;76.80
52975;BME280;38839;45.186;5.720;2023-04-08T05:30:33;99414.84;;;5.37;76.13
52975;BME280;38839;45.186;5.720;2023-04-08T05:32:59;99414.19;;;5.47;76.06
52975;BME280;38839;45.186;5.720;2023-04-08T05:35:24;99416.00;;;5.50;76.06
52975;BME280;38839;45.186;5.720;2023-04-08T05:37:50;99421.31;;;5.56;75.91
52975;BME280;38839;45.186;5.720;2023-04-08T05:40:15;99418.53;;;5.48;75.93
52975;BME280;38839;45.186;5.720;2023-04-08T05:42:41;99427.25;;;5.52;75.78
52975;BME280;38839;45.186;5.720;2023-04-08T05:45:07;99432.63;;;5.61;75.71
52975;BME280;38839;45.186;5.720;2023-04-08T05:47:32;99430.13;;;5.65;75.41
52975;BME280;38839;45.186;5.720;2023-04-08T05:49:58;99427.84;;;5.81;75.09
52975;BME280;38839;45.186;5.720;2023-04-08T05:52:23;99436.69;;;5.92;74.68
52975;BME280;38839;45.186;5.720;2023-04-08T05:54:49;99439.44;;;5.97;74.15
52975;BME280;38839;45.186;5.720;2023-04-08T05:57:14;99440.44;;;6.03;74.24
52975;BME280;38839;45.186;5.720;2023-04-08T05:59:41;99437.88;;;6.05;73.65
52975;BME280;38839;45.186;5.720;2023-04-08T06:02:06;99437.06;;;6.08;73.62
52975;BME280;38839;45.186;5.720;2023-04-08T06:04:31;99440.59;;;6.11;73.38
52975;BME280;38839;45.186;5.720;2023-04-08T06:06:57;99446.44;;;6.01;73.48
52975;BME280;38839;45.186;5.720;2023-04-08T06:09:24;99450.00;;;6.08;73.76
52975;BME280;38839;45.186;5.720;2023-04-08T06:11:50;99450.28;;;6.21;73.46
52975;BME280;38839;45.186;5.720;2023-04-08T06:14:15;99458.25;;;6.32;72.70
52975;BME280;38839;45.186;5.720;2023-04-08T06:16:41;99460.13;;;6.41;72.72
52975;BME280;38839;45.186;5.720;2023-04-08T06:19:06;99451.41;;;6.37;72.78
52975;BME280;38839;45.186;5.720;2023-04-08T06:21:31;99454.00;;;6.37;72.84
52975;BME280;38839;45.186;5.720;2023-04-08T06:23:57;99458.81;;;6.63;72.13
52975;BME280;38839;45.186;5.720;2023-04-08T06:26:22;99461.22;;;6.54;72.05
52975;BME280;38839;45.186;5.720;2023-04-08T06:28:48;99456.47;;;6.78;71.27
52975;BME280;38839;45.186;5.720;2023-04-08T06:31:13;99464.31;;;6.81;71.15
52975;BME280;38839;45.186;5.720;2023-04-08T06:33:38;99446.47;;;7.03;70.48
52975;BME280;38839;45.186;5.720;2023-04-08T06:36:05;99458.63;;;7.04;70.63
52975;BME280;38839;45.186;5.720;2023-04-08T06:38:31;99456.75;;;6.97;70.77
52975;BME280;38839;45.186;5.720;2023-04-08T06:41:05;99457.66;;;6.99;70.92
52975;BME280;38839;45.186;5.720;2023-04-08T06:43:34;99465.22;;;6.83;71.35
52975;BME280;38839;45.186;5.720;2023-04-08T06:46:01;99457.56;;;6.93;71.03
52975;BME280;38839;45.186;5.720;2023-04-08T06:48:27;99465.59;;;7.08;70.84
52975;BME280;38839;45.186;5.720;2023-04-08T06:50:55;99474.28;;;7.10;70.73
52975;BME280;38839;45.186;5.720;2023-04-08T06:53:22;99460.50;;;7.14;70.68
52975;BME280;38839;45.186;5.720;2023-04-08T06:55:48;99463.28;;;7.25;70.27
52975;BME280;38839;45.186;5.720;2023-04-08T06:58:13;99460.88;;;7.39;69.70
52975;BME280;38839;45.186;5.720;2023-04-08T07:00:39;99460.91;;;7.40;69.73
52975;BME280;38839;45.186;5.720;2023-04-08T07:03:06;99468.03;;;7.55;69.07
52975;BME280;38839;45.186;5.720;2023-04-08T07:05:31;99472.47;;;7.61;68.92
52975;BME280;38839;45.186;5.720;2023-04-08T07:07:56;99465.47;;;7.57;68.86
52975;BME280;38839;45.186;5.720;2023-04-08T07:10:22;99459.34;;;7.53;69.00
52975;BME280;38839;45.186;5.720;2023-04-08T07:12:47;99476.91;;;7.73;68.45
52975;BME280;38839;45.186;5.720;2023-04-08T07:15:13;99481.19;;;7.68;68.34
52975;BME280;38839;45.186;5.720;2023-04-08T07:17:38;99473.56;;;7.80;67.94
52975;BME280;38839;45.186;5.720;2023-04-08T07:20:05;99478.63;;;7.69;68.36
52975;BME280;38839;45.186;5.720;2023-04-08T07:22:30;99483.16;;;7.85;67.79
52975;BME280;38839;45.186;5.720;2023-04-08T07:24:55;99483.31;;;7.96;67.58
52975;BME280;38839;45.186;5.720;2023-04-08T07:27:21;99479.88;;;7.99;67.44
52975;BME280;38839;45.186;5.720;2023-04-08T07:29:51;99470.56;;;8.18;67.01
52975;BME280;38839;45.186;5.720;2023-04-08T07:32:17;99478.44;;;8.25;66.67
52975;BME280;38839;45.186;5.720;2023-04-08T07:34:43;99485.34;;;8.22;66.64
52975;BME280;38839;45.186;5.720;2023-04-08T07:37:08;99484.59;;;8.32;66.49
52975;BME280;38839;45.186;5.720;2023-04-08T07:39:34;99482.94;;;8.40;65.96
52975;BME280;38839;45.186;5.720;2023-04-08T07:42:00;99479.53;;;8.41;65.49
52975;BME280;38839;45.186;5.720;2023-04-08T07:44:25;99479.63;;;8.51;65.69
52975;BME280;38839;45.186;5.720;2023-04-08T07:46:50;99478.81;;;8.56;65.36
52975;BME280;38839;45.186;5.720;2023-04-08T07:49:16;99484.88;;;8.55;65.26
52975;BME280;38839;45.186;5.720;2023-04-08T07:51:41;99485.59;;;8.42;65.17
52975;BME280;38839;45.186;5.720;2023-04-08T07:54:07;99485.63;;;8.46;65.51
52975;BME280;38839;45.186;5.720;2023-04-08T07:56:34;99485.53;;;8.39;65.15
52975;BME280;38839;45.186;5.720;2023-04-08T07:59:00;99484.66;;;8.38;65.57
52975;BME280;38839;45.186;5.720;2023-04-08T08:01:25;99482.41;;;8.68;64.57
52975;BME280;38839;45.186;5.720;2023-04-08T08:03:53;99482.59;;;8.86;64.15
52975;BME280;38839;45.186;5.720;2023-04-08T08:06:19;99481.97;;;9.19;63.31
52975;BME280;38839;45.186;5.720;2023-04-08T08:08:46;99486.41;;;9.30;62.54
52975;BME280;38839;45.186;5.720;2023-04-08T08:11:11;99479.72;;;9.72;61.50
52975;BME280;38839;45.186;5.720;2023-04-08T08:13:37;99479.09;;;10.22;60.43
52975;BME280;38839;45.186;5.720;2023-04-08T08:16:02;99487.75;;;10.13;59.96
52975;BME280;38839;45.186;5.720;2023-04-08T08:18:28;99490.50;;;10.55;58.84
52975;BME280;38839;45.186;5.720;2023-04-08T08:20:53;99494.03;;;10.84;57.65
52975;BME280;38839;45.186;5.720;2023-04-08T08:23:19;99487.94;;;11.13;56.68
52975;BME280;38839;45.186;5.720;2023-04-08T08:25:44;99482.69;;;11.56;55.93
52975;BME280;38839;45.186;5.720;2023-04-08T08:28:10;99494.84;;;11.94;54.80
52975;BME280;38839;45.186;5.720;2023-04-08T08:30:35;99479.94;;;12.12;53.81
52975;BME280;38839;45.186;5.720;2023-04-08T08:33:02;99485.78;;;12.63;52.88
52975;BME280;38839;45.186;5.720;2023-04-08T08:35:27;99489.22;;;12.76;50.99
52975;BME280;38839;45.186;5.720;2023-04-08T08:37:53;99486.69;;;12.59;51.67
52975;BME280;38839;45.186;5.720;2023-04-08T08:40:18;99487.66;;;12.45;51.64
52975;BME280;38839;45.186;5.720;2023-04-08T08:42:51;99484.91;;;12.64;51.34
52975;BME280;38839;45.186;5.720;2023-04-08T08:45:18;99486.63;;;12.68;51.02
52975;BME280;38839;45.186;5.720;2023-04-08T08:47:43;99499.97;;;12.25;50.62
52975;BME280;38839;45.186;5.720;2023-04-08T08:50:09;99493.81;;;12.32;51.08
52975;BME280;38839;45.186;5.720;2023-04-08T08:52:35;99494.63;;;12.40;51.00
52975;BME280;38839;45.186;5.720;2023-04-08T08:55:00;99491.75;;;12.83;50.16
52975;BME280;38839;45.186;5.720;2023-04-08T08:57:26;99495.88;;;13.18;49.27
52975;BME280;38839;45.186;5.720;2023-04-08T08:59:52;99492.22;;;13.41;48.59
52975;BME280;38839;45.186;5.720;2023-04-08T09:02:27;99488.59;;;13.56;46.83
52975;BME280;38839;45.186;5.720;2023-04-08T09:05:01;99489.63;;;13.35;47.41
52975;BME280;38839;45.186;5.720;2023-04-08T09:07:28;99493.22;;;13.23;47.45
52975;BME280;38839;45.186;5.720;2023-04-08T09:09:56;99496.91;;;13.00;48.33
52975;BME280;38839;45.186;5.720;2023-04-08T09:12:22;99483.97;;;12.74;49.15
52975;BME280;38839;45.186;5.720;2023-04-08T09:14:48;99472.38;;;13.11;47.92
52975;BME280;38839;45.186;5.720;2023-04-08T09:17:14;99479.91;;;13.49;47.23
52975;BME280;38839;45.186;5.720;2023-04-08T09:20:06;99476.34;;;13.56;46.62
52975;BME280;38839;45.186;5.720;2023-04-08T09:23:01;99483.22;;;13.66;45.93
52975;BME280;38839;45.186;5.720;2023-04-08T09:27:53;99481.41;;;13.75;45.85
52975;BME280;38839;45.186;5.720;2023-04-08T09:30:23;99477.66;;;13.94;45.37
52975;BME280;38839;45.186;5.720;2023-04-08T09:32:52;99482.91;;;13.97;45.50
52975;BME280;38839;45.186;5.720;2023-04-08T09:35:18;99477.38;;;13.40;46.24
52975;BME280;38839;45.186;5.720;2023-04-08T09:37:44;99479.22;;;13.27;46.78
52975;BME280;38839;45.186;5.720;2023-04-08T09:40:11;99468.75;;;13.24;46.13
52975;BME280;38839;45.186;5.720;2023-04-08T09:42:39;99474.88;;;13.23;44.31
52975;BME280;38839;45.186;5.720;2023-04-08T09:45:08;99463.25;;;13.53;44.86
52975;BME280;38839;45.186;5.720;2023-04-08T09:47:41;99466.72;;;13.60;44.56
52975;BME280;38839;45.186;5.720;2023-04-08T09:50:08;99458.94;;;13.49;45.24
52975;BME280;38839;45.186;5.720;2023-04-08T09:52:43;99462.84;;;13.00;45.81
52975;BME280;38839;45.186;5.720;2023-04-08T09:55:11;99467.25;;;12.94;46.77
52975;BME280;38839;45.186;5.720;2023-04-08T09:57:48;99470.75;;;12.93;47.48
52975;BME280;38839;45.186;5.720;2023-04-08T10:00:16;99466.47;;;12.81;47.51
52975;BME280;38839;45.186;5.720;2023-04-08T10:05:30;99463.28;;;12.37;48.72
52975;BME280;38839;45.186;5.720;2023-04-08T10:07:57;99454.50;;;12.47;48.66
52975;BME280;38839;45.186;5.720;2023-04-08T10:10:23;99459.56;;;12.69;48.43
52975;BME280;38839;45.186;5.720;2023-04-08T10:12:49;99457.00;;;12.66;48.21
52975;BME280;38839;45.186;5.720;2023-04-08T10:17:54;99449.06;;;12.75;47.92
52975;BME280;38839;45.186;5.720;2023-04-08T10:23:03;99452.47;;;12.83;48.05
52975;BME280;38839;45.186;5.720;2023-04-08T10:25:31;99441.19;;;12.80;48.63
52975;BME280;38839;45.186;5.720;2023-04-08T10:27:58;99450.72;;;12.85;48.54
52975;BME280;38839;45.186;5.720;2023-04-08T10:32:55;99445.63;;;12.67;48.84
52975;BME280;38839;45.186;5.720;2023-04-08T10:35:30;99450.81;;;12.73;48.57
52975;BME280;38839;45.186;5.720;2023-04-08T10:37:57;99439.56;;;12.63;48.63
52975;BME280;38839;45.186;5.720;2023-04-08T10:40:23;99443.81;;;12.75;48.64
52975;BME280;38839;45.186;5.720;2023-04-08T10:42:55;99446.47;;;12.74;48.27
52975;BME280;38839;45.186;5.720;2023-04-08T10:45:21;99437.81;;;12.62;48.56
52975;BME280;38839;45.186;5.720;2023-04-08T10:47:46;99436.03;;;12.67;48.68
52975;BME280;38839;45.186;5.720;2023-04-08T10:50:16;99433.44;;;12.66;48.22
52975;BME280;38839;45.186;5.720;2023-04-08T10:52:53;99433.38;;;12.69;48.26
52975;BME280;38839;45.186;5.720;2023-04-08T10:55:25;99431.63;;;12.73;48.69
52975;BME280;38839;45.186;5.720;2023-04-08T10:57:54;99432.38;;;12.88;48.33
52975;BME280;38839;45.186;5.720;2023-04-08T11:00:32;99422.72;;;12.94;48.48
52975;BME280;38839;45.186;5.720;2023-04-08T11:03:08;99426.25;;;12.89;47.96
52975;BME280;38839;45.186;5.720;2023-04-08T11:05:36;99424.53;;;12.88;48.51
52975;BME280;38839;45.186;5.720;2023-04-08T11:08:02;99421.88;;;12.92;48.63
52975;BME280;38839;45.186;5.720;2023-04-08T11:10:28;99427.09;;;12.93;47.74
52975;BME280;38839;45.186;5.720;2023-04-08T11:12:54;99419.25;;;12.96;47.51
52975;BME280;38839;45.186;5.720;2023-04-08T11:15:21;99414.91;;;12.92;47.53
52975;BME280;38839;45.186;5.720;2023-04-08T11:17:48;99407.00;;;12.97;47.97
52975;BME280;38839;45.186;5.720;2023-04-08T11:20:14;99407.75;;;13.08;47.99
52975;BME280;38839;45.186;5.720;2023-04-08T11:22:40;99405.13;;;13.08;48.42
52975;BME280;38839;45.186;5.720;2023-04-08T11:25:08;99405.13;;;13.08;48.29
52975;BME280;38839;45.186;5.720;2023-04-08T11:27:35;99397.22;;;13.17;48.16
52975;BME280;38839;45.186;5.720;2023-04-08T11:30:01;99407.06;;;12.87;48.56
52975;BME280;38839;45.186;5.720;2023-04-08T11:32:27;99405.34;;;12.86;48.26
52975;BME280;38839;45.186;5.720;2023-04-08T11:34:58;99386.84;;;13.03;48.30
52975;BME280;38839;45.186;5.720;2023-04-08T11:37:36;99385.84;;;13.18;48.31
52975;BME280;38839;45.186;5.720;2023-04-08T11:40:06;99391.81;;;13.37;47.74
52975;BME280;38839;45.186;5.720;2023-04-08T11:42:31;99380.28;;;13.52;47.96
52975;BME280;38839;45.186;5.720;2023-04-08T11:44:57;99379.31;;;13.61;47.60
52975;BME280;38839;45.186;5.720;2023-04-08T11:47:35;99373.28;;;13.51;47.68
52975;BME280;38839;45.186;5.720;2023-04-08T11:50:00;99374.91;;;13.61;47.54
52975;BME280;38839;45.186;5.720;2023-04-08T11:52:47;99371.41;;;13.64;47.32
52975;BME280;38839;45.186;5.720;2023-04-08T11:55:30;99368.53;;;13.84;46.71
52975;BME280;38839;45.186;5.720;2023-04-08T11:58:01;99362.34;;;13.88;46.73
52975;BME280;38839;45.186;5.720;2023-04-08T12:00:27;99359.56;;;14.00;46.37
52975;BME280;38839;45.186;5.720;2023-04-08T12:02:53;99356.84;;;14.06;46.22
52975;BME280;38839;45.186;5.720;2023-04-08T12:05:18;99355.25;;;13.96;46.20
52975;BME280;38839;45.186;5.720;2023-04-08T12:07:44;99357.00;;;13.97;45.78
52975;BME280;38839;45.186;5.720;2023-04-08T12:10:10;99346.59;;;13.88;45.86
52975;BME280;38839;45.186;5.720;2023-04-08T12:12:36;99348.19;;;14.01;45.54
52975;BME280;38839;45.186;5.720;2023-04-08T12:15:02;99347.25;;;14.07;45.61
52975;BME280;38839;45.186;5.720;2023-04-08T12:17:27;99348.88;;;14.14;45.72
52975;BME280;38839;45.186;5.720;2023-04-08T12:19:53;99329.44;;;14.27;45.19
52975;BME280;38839;45.186;5.720;2023-04-08T12:22:18;99335.50;;;14.31;45.02
52975;BME280;38839;45.186;5.720;2023-04-08T12:24:43;99333.72;;;14.33;45.05
52975;BME280;38839;45.186;5.720;2023-04-08T12:27:09;99328.47;;;14.33;45.03
52975;BME280;38839;45.186;5.720;2023-04-08T12:29:34;99333.53;;;14.45;44.75
52975;BME280;38839;45.186;5.720;2023-04-08T12:31:59;99327.25;;;14.57;44.60
52975;BME280;38839;45.186;5.720;2023-04-08T12:34:26;99327.13;;;14.65;44.42
52975;BME280;38839;45.186;5.720;2023-04-08T12:36:52;99328.78;;;14.71;44.06
52975;BME280;38839;45.186;5.720;2023-04-08T12:39:17;99327.63;;;14.87;43.53
52975;BME280;38839;45.186;5.720;2023-04-08T12:41:42;99323.06;;;14.97;43.47
52975;BME280;38839;45.186;5.720;2023-04-08T12:44:08;99318.41;;;15.11;43.50
52975;BME280;38839;45.186;5.720;2023-04-08T12:46:33;99307.72;;;15.20;43.04
52975;BME280;38839;45.186;5.720;2023-04-08T12:48:58;99306.19;;;15.10;43.16
52975;BME280;38839;45.186;5.720;2023-04-08T12:51:24;99307.03;;;15.11;43.28
52975;BME280;38839;45.186;5.720;2023-04-08T12:53:50;99310.59;;;15.08;43.27
52975;BME280;38839;45.186;5.720;2023-04-08T12:56:16;99308.66;;;15.18;43.14
52975;BME280;38839;45.186;5.720;2023-04-08T12:58:41;99310.13;;;15.31;42.87
52975;BME280;38839;45.186;5.720;2023-04-08T13:01:06;99307.38;;;15.39;42.55
52975;BME280;38839;45.186;5.720;2023-04-08T13:03:32;99301.19;;;15.40;42.59
52975;BME280;38839;45.186;5.720;2023-04-08T13:05:59;99300.19;;;15.47;42.46
52975;BME280;38839;45.186;5.720;2023-04-08T13:08:24;99303.19;;;15.70;42.22
52975;BME280;38839;45.186;5.720;2023-04-08T13:10:50;99287.31;;;15.77;41.95
52975;BME280;38839;45.186;5.720;2023-04-08T13:13:15;99293.59;;;15.68;42.43
52975;BME280;38839;45.186;5.720;2023-04-08T13:15:41;99292.78;;;15.64;42.48
52975;BME280;38839;45.186;5.720;2023-04-08T13:18:06;99281.28;;;15.70;42.50